Time;durP1;ratioP1;P1;durP2;ratioP2;P2;SDS_P1;SDS_P2;PMS_P1;PMS_P2;Temp;Humidity;BMP_temperature;BMP_pressure;BME280_temperature;BME280_humidity;BME280_pressure;Samples;Min_cycle;Max_cycle;Signal;HPM_P1;HPM_P2
2023/12/11 00:01:49;;;;;;;0.60;0.60;;;;;;;-2.12;79.51;98746.25;105614;1256;74343;-28
2023/12/11 00:04:17;;;;;;;2.20;1.20;;;;;;;-2.27;80.08;98739.14;105303;1256;72495;-28
2023/12/11 00:06:44;;;;;;;1.30;0.90;;;;;;;-2.48;80.75;98729.11;105432;1257;62868;-28
2023/12/11 00:09:13;;;;;;;1.20;0.90;;;;;;;-2.73;81.29;98731.61;105533;1261;61093;-28
2023/12/11 00:11:40;;;;;;;2.20;1.30;;;;;;;-2.54;81.49;98724.53;105363;1256;73047;-28
2023/12/11 00:14:07;;;;;;;1.30;1.00;;;;;;;-2.12;79.75;98726.38;105513;1260;74806;-28
2023/12/11 00:16:34;;;;;;;1.20;0.80;;;;;;;-2.06;78.69;98723.58;105441;1256;72377;-28
2023/12/11 00:19:01;;;;;;;1.00;0.90;;;;;;;-2.27;79.42;98715.66;105326;1256;61089;-28
2023/12/11 00:21:29;;;;;;;1.30;1.00;;;;;;;-2.48;80.16;98719.41;105414;1257;61084;-28
2023/12/11 00:23:56;;;;;;;1.80;1.10;;;;;;;-2.65;81.45;98725.40;105581;1256;73627;-28
2023/12/11 00:26:23;;;;;;;1.40;1.00;;;;;;;-2.42;81.33;98728.56;105241;1257;74362;-28
2023/12/11 00:28:50;;;;;;;0.80;0.70;;;;;;;-1.97;79.85;98726.00;105635;1256;72660;-28
2023/12/11 00:31:17;;;;;;;1.60;1.10;;;;;;;-1.86;78.99;98724.10;105597;1256;61046;-28
2023/12/11 00:33:45;;;;;;;2.30;1.00;;;;;;;-1.88;78.77;98726.38;105211;1256;61195;-28
2023/12/11 00:36:12;;;;;;;1.70;1.10;;;;;;;-2.02;79.30;98724.49;105385;1257;73140;-28
2023/12/11 00:38:39;;;;;;;1.80;1.30;;;;;;;-2.24;79.64;98724.06;105522;1257;73137;-28
2023/12/11 00:41:07;;;;;;;1.40;1.10;;;;;;;-2.64;81.35;98726.41;105428;1257;72556;-28
2023/12/11 00:43:34;;;;;;;1.30;1.00;;;;;;;-2.38;81.30;98724.37;105397;1256;61390;-28
2023/12/11 00:46:14;;;;;;;1.70;1.20;;;;;;;-2.04;80.07;98730.53;105556;1260;61104;-28
2023/12/11 00:48:41;;;;;;;2.50;1.70;;;;;;;-2.05;79.44;98723.05;105503;1256;72944;-28
2023/12/11 00:51:18;;;;;;;1.30;1.10;;;;;;;-2.23;79.73;98719.26;105539;1257;74299;-28
2023/12/11 00:53:46;;;;;;;1.30;1.00;;;;;;;-2.45;80.31;98720.16;105563;1256;72498;-28
2023/12/11 00:56:13;;;;;;;1.40;1.00;;;;;;;-2.57;80.73;98717.00;105617;1256;61196;-28
2023/12/11 00:58:40;;;;;;;2.10;1.10;;;;;;;-2.38;80.65;98715.86;105393;1256;61058;-28
2023/12/11 01:01:07;;;;;;;1.70;1.10;;;;;;;-2.11;79.50;98714.94;105567;1256;73025;-28
2023/12/11 01:03:35;;;;;;;1.60;1.30;;;;;;;-2.06;79.28;98718.02;105538;1261;74184;-28
2023/12/11 01:06:03;;;;;;;0.70;0.70;;;;;;;-2.01;79.28;98721.92;105601;1257;72637;-28
2023/12/11 01:08:30;;;;;;;1.60;1.10;;;;;;;-2.18;79.68;98718.42;105358;1256;61147;-28
2023/12/11 01:10:57;;;;;;;1.80;1.10;;;;;;;-2.52;80.73;98712.74;105598;1260;61152;-28
2023/12/11 01:13:24;;;;;;;2.20;1.50;;;;;;;-2.39;81.01;98714.86;105392;1257;72605;-28
2023/12/11 01:15:51;;;;;;;3.60;1.60;;;;;;;-1.73;78.88;98707.80;105443;1261;74372;-29
2023/12/11 01:18:19;;;;;;;2.20;1.20;;;;;;;-1.59;77.66;98695.91;105210;1256;71576;-28
2023/12/11 01:20:46;;;;;;;2.00;1.00;;;;;;;-1.85;77.57;98693.98;105412;1256;61028;-28
2023/12/11 01:23:13;;;;;;;1.40;0.90;;;;;;;-2.09;78.21;98689.33;105183;1260;61051;-28
2023/12/11 01:25:40;;;;;;;1.30;1.00;;;;;;;-2.29;79.02;98681.86;105473;1255;73881;-28
2023/12/11 01:28:08;;;;;;;1.90;1.30;;;;;;;-2.56;79.65;98673.44;105547;1256;74335;-28
2023/12/11 01:30:35;;;;;;;1.00;0.90;;;;;;;-2.50;79.57;98670.83;105549;1256;71654;-28
2023/12/11 01:33:03;;;;;;;1.00;0.80;;;;;;;-2.05;78.20;98675.41;105358;1256;61104;-28
2023/12/11 01:35:33;;;;;;;2.10;1.40;;;;;;;-1.84;77.29;98668.58;105316;1257;61148;-28
2023/12/11 01:38:01;;;;;;;1.40;1.10;;;;;;;-1.96;76.92;98663.73;105424;1257;73879;-28
2023/12/11 01:40:28;;;;;;;1.60;0.90;;;;;;;-2.19;77.75;98660.60;105444;1256;74416;-28
2023/12/11 01:42:55;;;;;;;1.60;0.90;;;;;;;-2.38;78.56;98657.55;105208;1256;72461;-28
2023/12/11 01:45:37;;;;;;;1.10;0.80;;;;;;;-2.61;79.68;98649.98;105463;1258;61274;-28
2023/12/11 01:48:05;;;;;;;1.30;0.90;;;;;;;-2.16;78.96;98650.80;105488;1257;61058;-28
2023/12/11 01:50:32;;;;;;;1.10;1.00;;;;;;;-1.77;77.63;98649.73;105456;1263;73617;-28
2023/12/11 01:52:59;;;;;;;2.40;2.00;;;;;;;-1.92;77.49;98642.98;105519;1261;74813;-28
2023/12/11 01:55:26;;;;;;;1.20;1.10;;;;;;;-2.09;78.13;98644.95;105318;1256;72494;-27
2023/12/11 01:57:53;;;;;;;2.10;1.20;;;;;;;-2.34;78.96;98643.13;105384;1256;61052;-27
2023/12/11 02:00:20;;;;;;;2.00;1.30;;;;;;;-2.67;80.29;98650.02;105562;1261;61130;-28
2023/12/11 02:02:47;;;;;;;2.60;1.00;;;;;;;-2.53;81.10;98646.13;105486;1256;73906;-28
2023/12/11 02:05:14;;;;;;;2.00;1.10;;;;;;;-2.09;79.08;98646.81;105606;1257;74176;-28
2023/12/11 02:07:41;;;;;;;1.50;1.20;;;;;;;-2.08;78.52;98649.66;105407;1256;72494;-28
2023/12/11 02:10:09;;;;;;;1.20;1.00;;;;;;;-2.27;79.08;98653.24;105429;1256;61062;-28
2023/12/11 02:12:36;;;;;;;1.60;1.50;;;;;;;-2.51;80.06;98656.45;105546;1257;61135;-28
2023/12/11 02:15:04;;;;;;;2.20;1.20;;;;;;;-2.72;80.97;98654.77;105613;1256;73945;-28
2023/12/11 02:17:31;;;;;;;1.30;0.90;;;;;;;-2.58;81.56;98659.73;105549;1259;74377;-28
2023/12/11 02:19:58;;;;;;;1.10;0.90;;;;;;;-2.05;79.69;98660.63;105546;1256;72444;-28
2023/12/11 02:22:25;;;;;;;1.40;1.20;;;;;;;-1.89;78.53;98668.40;105595;1256;61065;-29
2023/12/11 02:24:56;;;;;;;4.50;1.80;;;;;;;-1.99;78.57;98669.95;105477;1256;61138;-28
2023/12/11 02:27:23;;;;;;;2.60;1.50;;;;;;;-2.27;79.73;98671.60;105457;1256;72678;-29
2023/12/11 02:29:53;;;;;;;1.60;1.30;;;;;;;-2.56;80.77;98662.21;105326;1260;74285;-29
2023/12/11 02:32:20;;;;;;;1.30;1.00;;;;;;;-2.67;81.99;98657.69;105404;1261;72702;-28
2023/12/11 02:34:48;;;;;;;0.80;0.80;;;;;;;-2.26;80.91;98653.36;105232;1256;61277;-28
2023/12/11 02:37:15;;;;;;;1.70;1.10;;;;;;;-1.85;79.12;98653.45;105210;1258;61112;-27
2023/12/11 02:39:44;;;;;;;1.60;1.20;;;;;;;-2.00;79.40;98652.11;105371;1257;73795;-28
2023/12/11 02:42:11;;;;;;;1.80;1.20;;;;;;;-2.24;80.33;98649.59;105323;1264;74209;-28
2023/12/11 02:44:38;;;;;;;3.30;2.40;;;;;;;-2.48;81.51;98649.22;105484;1256;72537;-29
2023/12/11 02:47:05;;;;;;;2.10;1.60;;;;;;;-2.53;82.51;98641.19;105420;1257;61357;-29
2023/12/11 02:49:32;;;;;;;2.30;1.40;;;;;;;-2.13;81.04;98634.56;105359;1260;61170;-27
2023/12/11 02:51:59;;;;;;;3.10;1.70;;;;;;;-1.82;79.76;98634.12;105423;1256;73848;-28
2023/12/11 02:54:26;;;;;;;3.70;2.00;;;;;;;-1.86;79.18;98631.02;105278;1257;74114;-28
2023/12/11 02:56:53;;;;;;;1.10;1.00;;;;;;;-2.35;80.62;98630.59;105291;1256;72582;-28
2023/12/11 02:59:20;;;;;;;2.30;1.60;;;;;;;-2.51;81.51;98628.91;105315;1256;61062;-27
2023/12/11 03:01:47;;;;;;;4.40;3.00;;;;;;;-2.56;82.06;98628.21;105190;1256;61094;-27
2023/12/11 03:04:14;;;;;;;2.30;1.60;;;;;;;-2.08;80.84;98629.94;105365;1257;73675;-28
2023/12/11 03:06:41;;;;;;;2.70;2.00;;;;;;;-1.75;79.33;98627.90;105631;1256;74358;-28
2023/12/11 03:09:09;;;;;;;3.30;2.50;;;;;;;-2.09;79.71;98625.20;105276;1256;72627;-28
2023/12/11 03:11:36;;;;;;;1.80;1.60;;;;;;;-2.44;81.15;98625.08;105298;1256;61048;-27
2023/12/11 03:14:03;;;;;;;4.00;3.10;;;;;;;-2.65;82.14;98617.84;105321;1257;61167;-27
2023/12/11 03:16:30;;;;;;;6.20;3.40;;;;;;;-2.70;82.36;98612.22;105303;1256;73608;-27
2023/12/11 03:18:57;;;;;;;3.20;2.20;;;;;;;-2.24;80.98;98613.17;105227;1256;74535;-27
2023/12/11 03:21:24;;;;;;;3.30;2.20;;;;;;;-2.05;79.77;98615.55;105240;1256;72378;-28
2023/12/11 03:23:51;;;;;;;2.20;1.80;;;;;;;-2.12;79.63;98607.12;105445;1256;61049;-27
2023/12/11 03:26:18;;;;;;;4.10;2.80;;;;;;;-2.27;80.13;98597.46;105518;1256;61033;-28
2023/12/11 03:28:45;;;;;;;3.60;1.80;;;;;;;-2.46;80.54;98594.38;105470;1256;73848;-28
2023/12/11 03:31:12;;;;;;;2.70;1.40;;;;;;;-2.40;81.36;98599.95;105521;1257;74198;-27
2023/12/11 03:33:39;;;;;;;2.40;1.70;;;;;;;-2.07;80.00;98603.21;105540;1258;73119;-28
2023/12/11 03:36:07;;;;;;;4.20;2.20;;;;;;;-2.10;79.63;98598.73;105513;1257;61149;-28
2023/12/11 03:38:34;;;;;;;2.00;1.70;;;;;;;-2.08;79.46;98597.45;105421;1264;61163;-29
2023/12/11 03:41:01;;;;;;;2.60;1.90;;;;;;;-2.25;79.97;98595.86;105570;1256;73896;-28
2023/12/11 03:43:28;;;;;;;2.20;1.70;;;;;;;-2.61;81.15;98596.77;105609;1256;74256;-28
2023/12/11 03:45:55;;;;;;;4.60;2.30;;;;;;;-2.91;82.48;98594.05;105180;1259;71628;-28
2023/12/11 03:48:23;;;;;;;1.10;1.00;;;;;;;-2.51;81.32;98597.46;105391;1256;61072;-27
2023/12/11 03:50:50;;;;;;;4.60;2.30;;;;;;;-2.50;81.43;98596.93;105333;1261;61266;-28
2023/12/11 03:53:17;;;;;;;3.70;2.10;;;;;;;-2.34;80.63;98596.69;105223;1256;73664;-28
2023/12/11 03:55:44;;;;;;;2.20;1.50;;;;;;;-2.36;80.76;98594.71;105515;1257;74237;-27
2023/12/11 03:58:10;;;;;;;2.70;1.80;;;;;;;-2.60;81.29;98591.84;105594;1256;72637;-27
2023/12/11 04:00:38;;;;;;;3.80;2.70;;;;;;;-2.67;82.32;98594.61;105521;1256;61124;-28
2023/12/11 04:03:05;;;;;;;2.20;1.50;;;;;;;-2.31;81.14;98595.73;105567;1260;61145;-28
2023/12/11 04:05:32;;;;;;;3.60;2.20;;;;;;;-2.25;80.63;98597.05;105641;1257;73853;-28
2023/12/11 04:07:59;;;;;;;2.50;1.70;;;;;;;-2.46;81.43;98597.64;105548;1258;74268;-28
2023/12/11 04:10:26;;;;;;;2.90;1.90;;;;;;;-2.80;82.88;98598.95;105560;1256;72479;-28
2023/12/11 04:12:53;;;;;;;2.30;1.60;;;;;;;-2.99;83.82;98597.55;105532;1256;61158;-28
2023/12/11 04:15:20;;;;;;;2.80;1.80;;;;;;;-2.82;83.92;98600.73;105416;1264;61164;-27
2023/12/11 04:17:47;;;;;;;2.90;1.80;;;;;;;-2.33;81.87;98603.63;105367;1256;73766;-28
2023/12/11 04:20:14;;;;;;;1.20;0.90;;;;;;;-1.87;79.90;98596.99;105243;1257;74668;-28
2023/12/11 04:22:41;;;;;;;3.70;1.80;;;;;;;-2.01;79.39;98595.33;105503;1257;73311;-27
2023/12/11 04:25:08;;;;;;;1.30;1.00;;;;;;;-2.28;80.64;98596.82;105323;1256;61050;-28
2023/12/11 04:27:36;;;;;;;2.30;1.60;;;;;;;-2.37;80.94;98600.55;105252;1262;61065;-27
2023/12/11 04:30:04;;;;;;;5.30;3.20;;;;;;;-2.69;82.48;98593.15;105506;1256;74378;-27
2023/12/11 04:32:32;;;;;;;2.90;2.10;;;;;;;-2.20;81.09;98595.70;105402;1260;74441;-28
2023/12/11 04:34:59;;;;;;;4.90;1.90;;;;;;;-2.09;80.18;98598.52;105311;1260;72663;-28
2023/12/11 04:37:26;;;;;;;2.40;1.50;;;;;;;-2.13;80.48;98604.45;105628;1261;61106;-28
2023/12/11 04:39:54;;;;;;;2.80;1.90;;;;;;;-2.37;81.22;98607.33;105344;1256;61115;-27
2023/12/11 04:42:21;;;;;;;3.80;3.00;;;;;;;-2.40;81.45;98601.67;105559;1256;73781;-28
2023/12/11 04:44:48;;;;;;;3.70;1.90;;;;;;;-2.57;82.02;98599.20;105807;1255;74137;-29
2023/12/11 04:47:15;;;;;;;2.90;2.40;;;;;;;-2.13;80.78;98602.06;105484;1253;72969;-28
2023/12/11 04:49:42;;;;;;;2.30;1.80;;;;;;;-2.03;79.95;98609.52;105706;1253;61046;-27
2023/12/11 04:52:10;;;;;;;3.20;1.90;;;;;;;-2.15;80.25;98606.91;105885;1253;61106;-28
2023/12/11 04:54:37;;;;;;;2.60;1.90;;;;;;;-2.29;80.42;98606.20;105863;1253;73637;-28
2023/12/11 04:57:04;;;;;;;4.40;1.80;;;;;;;-2.36;80.89;98605.44;105734;1253;74475;-27
2023/12/11 04:59:31;;;;;;;3.50;2.70;;;;;;;-2.53;81.71;98603.14;105545;1253;72080;-27
2023/12/11 05:01:58;;;;;;;4.60;3.10;;;;;;;-2.17;81.09;98607.47;105532;1253;61106;-28
2023/12/11 05:04:26;;;;;;;5.30;2.70;;;;;;;-1.89;80.07;98608.83;105588;1259;61116;-28
2023/12/11 05:06:52;;;;;;;6.00;2.50;;;;;;;-2.00;79.49;98615.17;105683;1253;73845;-28
2023/12/11 05:09:20;;;;;;;2.60;1.80;;;;;;;-2.29;80.47;98618.27;105579;1256;74202;-29
2023/12/11 05:11:48;;;;;;;4.30;2.70;;;;;;;-2.56;81.59;98609.86;105643;1253;72440;-28
2023/12/11 05:14:15;;;;;;;3.20;2.30;;;;;;;-2.72;82.30;98603.30;105678;1253;61158;-31
2023/12/11 05:16:42;;;;;;;3.10;2.60;;;;;;;-2.27;81.09;98600.70;105501;1258;61094;-29
2023/12/11 05:19:09;;;;;;;2.00;1.40;;;;;;;-2.11;79.78;98600.44;105657;1253;73797;-28
2023/12/11 05:21:36;;;;;;;4.10;2.50;;;;;;;-2.26;80.15;98596.23;105514;1253;74313;-28
2023/12/11 05:24:04;;;;;;;3.90;2.50;;;;;;;-2.45;80.29;98601.31;105792;1257;72340;-28
2023/12/11 05:26:31;;;;;;;2.50;1.80;;;;;;;-2.83;81.89;98602.27;105530;1254;61142;-28
2023/12/11 05:29:00;;;;;;;1.20;0.80;;;;;;;-2.80;82.57;98594.89;105689;1259;61141;-28
2023/12/11 05:31:27;;;;;;;4.20;2.30;;;;;;;-2.04;80.09;98594.27;105767;1252;74185;-28
2023/12/11 05:33:54;;;;;;;4.00;2.60;;;;;;;-2.04;78.91;98594.25;105896;1253;73089;-28
2023/12/11 05:36:21;;;;;;;3.80;2.60;;;;;;;-2.32;79.49;98592.89;105743;1253;73199;-27
2023/12/11 05:38:48;;;;;;;2.40;1.90;;;;;;;-2.33;79.41;98597.34;105555;1253;61150;-28
2023/12/11 05:41:17;;;;;;;2.60;1.40;;;;;;;-2.53;80.47;98601.27;105550;1253;61173;-28
2023/12/11 05:43:44;;;;;;;3.10;2.20;;;;;;;-2.69;81.28;98602.16;105579;1253;73822;-28
2023/12/11 05:46:10;;;;;;;1.60;1.50;;;;;;;-2.43;80.75;98604.84;105993;1251;72913;-28
2023/12/11 05:48:37;;;;;;;3.60;2.80;;;;;;;-2.11;79.35;98600.98;105948;1251;72620;-27
2023/12/11 05:51:05;;;;;;;3.90;2.00;;;;;;;-2.26;79.61;98596.73;105867;1252;61032;-28
2023/12/11 05:53:32;;;;;;;1.90;1.40;;;;;;;-2.56;80.67;98591.84;105796;1254;61068;-29
2023/12/11 05:55:59;;;;;;;2.60;2.00;;;;;;;-2.67;80.96;98586.83;105876;1254;73840;-29
2023/12/11 05:58:26;;;;;;;2.10;1.90;;;;;;;-2.62;81.39;98589.15;106027;1251;73276;-29
2023/12/11 06:00:53;;;;;;;3.60;2.30;;;;;;;-2.09;80.20;98598.02;105941;1252;73211;-28
2023/12/11 06:03:21;;;;;;;3.40;2.30;;;;;;;-1.93;78.91;98586.52;106055;1251;61162;-29
2023/12/11 06:05:48;;;;;;;5.40;2.80;;;;;;;-2.05;78.71;98590.55;106047;1254;61119;-30
2023/12/11 06:08:15;;;;;;;3.80;2.40;;;;;;;-2.26;79.08;98587.74;106044;1251;73839;-31
2023/12/11 06:10:42;;;;;;;4.80;2.70;;;;;;;-2.43;79.65;98584.77;105964;1254;74304;-28
2023/12/11 06:13:09;;;;;;;5.40;2.90;;;;;;;-2.57;80.55;98580.16;105909;1251;72430;-27
2023/12/11 06:15:36;;;;;;;2.90;2.10;;;;;;;-2.03;79.79;98588.42;105987;1251;61137;-29
2023/12/11 06:18:03;;;;;;;3.50;2.60;;;;;;;-1.71;78.29;98584.33;105972;1252;61116;-28
2023/12/11 06:20:31;;;;;;;5.60;2.70;;;;;;;-1.75;77.71;98587.87;105811;1250;73487;-28
2023/12/11 06:22:58;;;;;;;4.80;2.90;;;;;;;-1.90;78.01;98587.43;106030;1251;74199;-30
2023/12/11 06:25:25;;;;;;;2.50;1.50;;;;;;;-2.11;78.38;98588.38;106015;1251;72606;-29
2023/12/11 06:27:52;;;;;;;3.80;2.90;;;;;;;-2.37;79.25;98588.96;105686;1251;61093;-29
2023/12/11 06:30:19;;;;;;;4.20;2.60;;;;;;;-2.70;80.50;98583.33;105915;1254;61121;-28
2023/12/11 06:32:46;;;;;;;6.40;3.20;;;;;;;-2.23;79.49;98584.56;105925;1251;73809;-27
2023/12/11 06:35:13;;;;;;;2.90;2.00;;;;;;;-1.79;77.70;98586.52;105868;1254;74674;-30
2023/12/11 06:37:40;;;;;;;4.00;2.20;;;;;;;-1.83;77.13;98586.16;105821;1254;72336;-29
2023/12/11 06:40:09;;;;;;;4.00;2.10;;;;;;;-1.98;77.30;98579.39;105974;1251;61025;-28
2023/12/11 06:42:39;;;;;;;2.20;1.60;;;;;;;-2.19;77.92;98575.92;105771;1252;61054;-29
2023/12/11 06:45:08;;;;;;;2.70;1.90;;;;;;;-2.65;79.48;98579.73;105947;1252;73951;-29
2023/12/11 06:47:36;;;;;;;3.70;2.30;;;;;;;-2.56;80.13;98584.71;105782;1260;73091;-29
2023/12/11 06:50:04;;;;;;;3.90;2.50;;;;;;;-2.22;78.19;98585.38;105653;1253;73171;-28
2023/12/11 06:52:31;;;;;;;3.10;2.10;;;;;;;-2.04;77.53;98583.86;105741;1251;61099;-28
2023/12/11 06:54:58;;;;;;;2.80;2.40;;;;;;;-2.20;77.43;98588.36;105832;1252;61138;-28
2023/12/11 06:57:26;;;;;;;7.10;3.60;;;;;;;-2.39;78.21;98589.56;105760;1251;73866;-29
2023/12/11 06:59:53;;;;;;;5.10;2.40;;;;;;;-2.52;78.64;98593.09;105963;1254;74236;-29
2023/12/11 07:02:20;;;;;;;2.70;2.10;;;;;;;-2.48;78.81;98601.26;105853;1251;72457;-29
2023/12/11 07:04:47;;;;;;;2.60;2.00;;;;;;;-2.16;77.74;98601.33;105738;1251;61042;-29
2023/12/11 07:07:14;;;;;;;3.20;2.60;;;;;;;-1.76;76.48;98597.12;105852;1252;61096;-30
2023/12/11 07:09:46;;;;;;;4.40;3.10;;;;;;;-1.97;76.63;98593.63;106005;1251;73715;-29
2023/12/11 07:12:13;;;;;;;4.70;2.00;;;;;;;-2.11;76.99;98589.57;106014;1251;74158;-27
2023/12/11 07:14:40;;;;;;;6.60;3.60;;;;;;;-2.12;76.93;98586.55;105993;1254;73019;-29
2023/12/11 07:17:08;;;;;;;4.20;2.70;;;;;;;-2.36;77.60;98582.81;105972;1253;61132;-30
2023/12/11 07:19:35;;;;;;;4.40;2.70;;;;;;;-2.45;78.22;98592.66;106040;1254;61092;-30
2023/12/11 07:22:02;;;;;;;4.10;2.50;;;;;;;-1.91;77.46;98593.23;106000;1251;73727;-30
2023/12/11 07:24:30;;;;;;;6.60;3.70;;;;;;;-1.75;76.11;98591.65;105976;1256;74165;-29
2023/12/11 07:26:57;;;;;;;6.20;3.50;;;;;;;-1.82;76.06;98592.59;105906;1250;72526;-30
2023/12/11 07:29:24;;;;;;;4.40;2.90;;;;;;;-2.08;76.64;98592.34;105769;1254;61426;-29
2023/12/11 07:31:52;;;;;;;4.50;2.80;;;;;;;-2.13;77.05;98591.16;106010;1254;61057;-30
2023/12/11 07:34:21;;;;;;;6.00;3.40;;;;;;;-2.41;77.85;98589.10;106047;1251;73843;-31
2023/12/11 07:36:51;;;;;;;3.30;2.30;;;;;;;-2.31;78.61;98589.80;105685;1256;74110;-29
2023/12/11 07:39:18;;;;;;;3.30;2.60;;;;;;;-1.78;76.71;98587.67;105845;1251;72439;-30
2023/12/11 07:41:45;;;;;;;7.10;3.00;;;;;;;-1.62;75.90;98586.89;106004;1251;61042;-29
2023/12/11 07:44:12;;;;;;;5.70;3.80;;;;;;;-1.80;76.02;98591.13;105927;1251;61095;-30
2023/12/11 07:46:40;;;;;;;9.20;3.00;;;;;;;-1.97;76.77;98590.41;105912;1251;73840;-27
2023/12/11 07:49:13;;;;;;;7.40;3.90;;;;;;;-2.08;76.99;98591.00;105991;1254;74146;-30
2023/12/11 07:51:41;;;;;;;6.20;3.20;;;;;;;-2.13;77.08;98585.91;105784;1254;72513;-29
2023/12/11 07:54:09;;;;;;;4.20;3.10;;;;;;;-2.18;77.50;98585.73;105786;1251;61170;-30
2023/12/11 07:56:37;;;;;;;3.70;2.40;;;;;;;-1.78;76.90;98585.61;105710;1258;61998;-29
2023/12/11 07:59:06;;;;;;;5.70;3.20;;;;;;;-1.61;76.05;98589.73;105981;1251;72658;-31
2023/12/11 08:01:33;;;;;;;4.80;3.50;;;;;;;-1.55;75.44;98593.41;106023;1251;74365;-31
2023/12/11 08:04:01;;;;;;;3.70;2.40;;;;;;;-1.94;76.58;98595.27;106040;1251;72315;-30
2023/12/11 08:06:29;;;;;;;6.30;3.30;;;;;;;-1.95;76.76;98592.21;106026;1251;61153;-29
2023/12/11 08:08:57;;;;;;;6.60;3.70;;;;;;;-2.21;77.63;98590.94;106010;1251;61169;-30
2023/12/11 08:11:30;;;;;;;7.60;4.20;;;;;;;-2.06;77.69;98592.25;105964;1252;73748;-28
2023/12/11 08:13:57;;;;;;;5.10;3.40;;;;;;;-1.50;76.18;98591.36;105999;1251;74414;-33
2023/12/11 08:16:24;;;;;;;4.00;3.00;;;;;;;-1.47;75.47;98593.11;105807;1254;72611;-30
2023/12/11 08:18:52;;;;;;;4.10;3.40;;;;;;;-1.60;75.98;98594.64;105708;1257;61062;-30
2023/12/11 08:21:19;;;;;;;6.70;4.20;;;;;;;-1.76;76.84;98592.19;106013;1251;61055;-30
2023/12/11 08:23:47;;;;;;;7.70;3.40;;;;;;;-1.87;77.01;98582.21;105992;1251;73735;-31
2023/12/11 08:26:17;;;;;;;7.20;4.40;;;;;;;-1.69;77.59;98565.20;105805;1256;74386;-30
2023/12/11 08:28:44;;;;;;;7.90;4.10;;;;;;;-1.04;75.96;98551.85;105767;1253;71545;-29
2023/12/11 08:31:11;;;;;;;4.30;3.00;;;;;;;-0.82;74.44;98544.29;105743;1260;61087;-28
2023/12/11 08:33:39;;;;;;;6.10;3.70;;;;;;;-0.94;74.42;98538.02;105967;1256;61102;-28
2023/12/11 08:36:07;;;;;;;7.80;4.20;;;;;;;-1.14;74.97;98534.55;106018;1252;75074;-28
2023/12/11 08:38:34;;;;;;;9.00;5.10;;;;;;;-1.35;75.62;98528.98;105878;1253;74420;-28
2023/12/11 08:41:01;;;;;;;7.10;4.00;;;;;;;-1.48;76.25;98529.81;105728;1252;72625;-28
2023/12/11 08:43:29;;;;;;;6.20;4.50;;;;;;;-1.32;76.74;98527.46;105929;1256;61386;-28
2023/12/11 08:45:56;;;;;;;4.90;3.10;;;;;;;-0.75;74.52;98528.48;105980;1252;61167;-28
2023/12/11 08:48:23;;;;;;;7.00;3.90;;;;;;;-0.46;73.71;98519.38;105952;1257;74354;-28
2023/12/11 08:50:55;;;;;;;6.80;4.00;;;;;;;-0.61;73.57;98512.71;105972;1251;73882;-28
2023/12/11 08:53:23;;;;;;;5.30;3.70;;;;;;;-0.97;74.35;98507.30;105776;1251;72302;-28
2023/12/11 08:55:51;;;;;;;6.20;4.30;;;;;;;-1.32;75.86;98506.17;105939;1256;61126;-28
2023/12/11 08:58:18;;;;;;;4.20;2.90;;;;;;;-1.65;76.96;98508.70;105986;1252;61119;-28
2023/12/11 09:00:45;;;;;;;8.20;4.80;;;;;;;-1.51;77.49;98508.98;106038;1251;73781;-28
2023/12/11 09:03:13;;;;;;;6.40;3.60;;;;;;;-0.73;74.70;98511.88;105976;1251;74395;-28
2023/12/11 09:05:40;;;;;;;4.60;3.00;;;;;;;-0.46;73.58;98512.22;105994;1254;73343;-28
2023/12/11 09:08:07;;;;;;;11.80;5.20;;;;;;;-0.40;72.73;98510.42;106029;1257;62062;-27
2023/12/11 09:10:36;;;;;;;4.20;3.00;;;;;;;-0.73;73.24;98508.11;105575;1257;61150;-28
2023/12/11 09:13:03;;;;;;;5.60;3.30;;;;;;;-0.89;74.22;98504.73;103122;1257;3760659;-28
2023/12/11 09:15:31;;;;;;;5.20;3.20;;;;;;;-1.08;74.95;98502.61;105972;1254;73231;-28
2023/12/11 09:17:58;;;;;;;4.40;2.60;;;;;;;-1.12;75.81;98495.64;105616;1252;61225;-28
2023/12/11 09:20:25;;;;;;;6.40;3.70;;;;;;;-0.66;74.72;98494.51;105820;1256;61238;-28
2023/12/11 09:22:53;;;;;;;8.10;4.50;;;;;;;-0.18;73.15;98487.07;105998;1254;75579;-28
2023/12/11 09:25:20;;;;;;;6.40;3.80;;;;;;;-0.08;71.70;98482.20;106077;1254;74151;-28
2023/12/11 09:27:47;;;;;;;5.80;3.60;;;;;;;-0.27;72.07;98477.80;105932;1254;72466;-28
2023/12/11 09:30:15;;;;;;;5.70;3.80;;;;;;;-0.72;73.61;98475.68;105955;1251;61045;-29
2023/12/11 09:32:43;;;;;;;6.10;3.10;;;;;;;-0.70;74.18;98476.10;106006;1253;61344;-28
2023/12/11 09:35:10;;;;;;;8.60;4.30;;;;;;;-0.81;74.15;98478.83;105911;1257;73539;-28
2023/12/11 09:37:38;;;;;;;6.30;4.10;;;;;;;-0.82;75.22;98477.15;105853;1256;72344;-28
2023/12/11 09:40:06;;;;;;;4.60;3.10;;;;;;;-0.21;72.95;98473.07;105831;1251;72590;-28
2023/12/11 09:42:34;;;;;;;6.10;3.10;;;;;;;-0.09;72.10;98472.48;105763;1267;61190;-28
2023/12/11 09:45:03;;;;;;;5.00;3.50;;;;;;;-0.07;72.03;98463.88;105854;1257;61087;-28
2023/12/11 09:47:34;;;;;;;6.30;4.30;;;;;;;-0.29;72.40;98458.39;105643;1252;73727;-28
2023/12/11 09:50:02;;;;;;;10.70;5.40;;;;;;;-0.75;73.93;98459.63;105666;1251;74707;-28
2023/12/11 09:52:30;;;;;;;2.90;2.10;;;;;;;-0.88;75.25;98456.09;105978;1258;71418;-28
2023/12/11 09:54:58;;;;;;;6.30;3.20;;;;;;;-0.23;73.87;98460.52;105952;1253;61183;-28
2023/12/11 09:57:25;;;;;;;5.10;3.30;;;;;;;0.04;72.17;98463.70;105980;1254;61752;-28
2023/12/11 09:59:53;;;;;;;7.50;4.40;;;;;;;-0.07;71.96;98460.11;105980;1252;73687;-28
2023/12/11 10:02:20;;;;;;;11.10;5.40;;;;;;;-0.13;72.35;98462.09;106015;1251;74372;-28
2023/12/11 10:05:24;;;;;;;4.40;2.90;;;;;;;-0.18;72.74;98455.35;105949;1257;71595;-28
2023/12/11 10:07:51;;;;;;;;;;;;;;;-0.31;73.30;98450.16;105665;1251;61268;-28
2023/12/11 10:10:22;;;;;;;7.70;4.80;;;;;;;-0.53;74.26;98438.54;105881;1260;61112;-28
2023/12/11 10:12:50;;;;;;;5.80;3.70;;;;;;;-0.08;73.31;98430.27;105764;1251;72585;-28
2023/12/11 10:15:25;;;;;;;8.60;4.30;;;;;;;0.34;71.82;98425.23;106027;1255;74100;-28
2023/12/11 10:18:03;;;;;;;4.50;3.30;;;;;;;0.34;71.65;98419.27;105894;1257;72794;-28
2023/12/11 10:20:32;;;;;;;5.90;3.50;;;;;;;0.20;71.71;98414.45;105926;1251;61089;-28
2023/12/11 10:23:11;;;;;;;5.90;4.20;;;;;;;0.03;72.31;98403.48;105801;1258;61173;-28
2023/12/11 10:25:42;;;;;;;8.10;4.40;;;;;;;-0.17;73.03;98407.19;105736;1258;73808;-28
2023/12/11 10:28:11;;;;;;;5.30;3.50;;;;;;;-0.22;73.66;98409.48;105645;1259;73234;-28
2023/12/11 10:30:59;;;;;;;10.30;5.30;;;;;;;0.36;72.56;98410.43;105719;1256;72467;-29
2023/12/11 10:33:27;;;;;;;6.40;3.90;;;;;;;0.64;70.87;98406.81;105610;1260;61341;-28
2023/12/11 10:36:15;;;;;;;5.50;3.70;;;;;;;0.59;70.60;98399.54;105546;1250;61109;-28
2023/12/11 10:38:43;;;;;;;7.10;4.10;;;;;;;0.49;71.03;98397.15;105872;1258;73888;-27
2023/12/11 10:41:30;;;;;;;6.70;4.20;;;;;;;0.38;71.30;98387.45;105986;1258;75782;-28
2023/12/11 10:43:58;;;;;;;5.90;4.20;;;;;;;0.30;71.75;98388.34;105691;1257;71508;-27
2023/12/11 10:46:43;;;;;;;3.60;2.70;;;;;;;0.24;72.27;98398.23;105862;1257;61140;-28
2023/12/11 10:49:11;;;;;;;7.20;4.50;;;;;;;0.49;72.19;98414.56;105727;1251;61067;-28
2023/12/11 10:51:39;;;;;;;5.30;3.40;;;;;;;1.09;70.22;98405.34;105928;1256;75765;-29
2023/12/11 10:54:08;;;;;;;4.50;3.30;;;;;;;1.17;69.04;98407.67;105882;1257;76234;-29
2023/12/11 10:56:36;;;;;;;4.00;2.30;;;;;;;0.99;69.37;98419.41;105971;1256;71574;-29
2023/12/11 10:59:04;;;;;;;7.10;4.10;;;;;;;0.70;70.35;98427.73;105866;1257;61109;-29
2023/12/11 11:01:32;;;;;;;6.40;4.30;;;;;;;0.36;71.94;98432.14;105621;1251;61074;-29
2023/12/11 11:04:01;;;;;;;5.80;3.80;;;;;;;0.17;72.77;98427.23;105860;1257;73874;-30
2023/12/11 11:06:29;;;;;;;7.30;4.80;;;;;;;0.02;73.45;98430.88;105807;1256;75451;-29
2023/12/11 11:09:04;;;;;;;8.00;5.80;;;;;;;-0.04;74.03;98431.30;105562;1257;73838;-28
2023/12/11 11:11:37;;;;;;;6.20;3.30;;;;;;;0.56;72.38;98428.76;105731;1251;61161;-28
2023/12/11 11:14:24;;;;;;;8.50;5.40;;;;;;;0.78;71.33;98418.77;105580;1257;61045;-29
2023/12/11 11:16:53;;;;;;;6.00;4.70;;;;;;;0.89;70.86;98408.95;105640;1258;73028;-29
2023/12/11 11:19:20;;;;;;;6.80;4.70;;;;;;;0.62;71.06;98407.92;105581;1258;74532;-28
2023/12/11 11:29:39;;;;;;;6.00;3.50;;;;;;;0.56;72.80;98393.23;102653;1293;600224;-29
2023/12/11 11:32:08;;;;;;;9.20;4.70;;;;;;;1.25;71.12;98397.18;104864;1268;61216;-28
2023/12/11 11:42:16;;;;;;;9.30;4.40;;;;;;;1.16;70.03;98382.41;102547;1292;600002;-26
2023/12/11 11:44:44;;;;;;;7.50;4.70;;;;;;;0.90;70.86;98386.71;104817;1272;61595;-27
2023/12/11 11:47:19;;;;;;;9.20;5.10;;;;;;;0.56;71.51;98381.77;104838;1271;61251;-26